Time;durP1;ratioP1;P1;durP2;ratioP2;P2;SDS_P1;SDS_P2;PMS_P1;PMS_P2;Temp;Humidity;BMP_temperature;BMP_pressure;BME280_temperature;BME280_humidity;BME280_pressure;Samples;Min_cycle;Max_cycle;Signal;HPM_P1;HPM_P2
2021/12/07 00:02:23;;;;;;;;;2.00;2.00;;;;;21.93;37.61;101093.41;4973520;28;45515;-74
2021/12/07 00:04:49;;;;;;;;;2.25;2.00;;;;;21.89;37.66;101087.63;4987411;28;45412;-73
2021/12/07 00:07:15;;;;;;;;;1.00;0.00;;;;;21.85;37.84;101078.38;4985220;28;45328;-74
2021/12/07 00:09:44;;;;;;;;;1.50;1.00;;;;;21.94;37.95;101093.22;4983203;28;46130;-73
2021/12/07 00:12:10;;;;;;;;;1.25;1.25;;;;;21.72;37.59;101065.69;4971625;28;45517;-74
2021/12/07 00:14:40;;;;;;;;;1.00;1.00;;;;;21.92;37.68;101107.66;4987841;28;45392;-73
2021/12/07 00:17:07;;;;;;;;;1.67;0.33;;;;;21.93;38.11;101112.78;4974029;28;45506;-73
2021/12/07 00:19:33;;;;;;;;;0.75;0.75;;;;;21.93;37.98;101104.84;4986146;28;46315;-74
2021/12/07 00:21:59;;;;;;;;;1.00;1.00;;;;;21.91;37.98;101120.06;4985617;28;45285;-74
2021/12/07 00:24:26;;;;;;;;;1.00;1.00;;;;;21.93;37.83;101122.56;5001838;28;45419;-74
2021/12/07 00:26:52;;;;;;;;;2.00;0.00;;;;;21.85;37.56;101112.78;5010920;28;45431;-73
2021/12/07 00:29:18;;;;;;;;;0.00;0.00;;;;;21.92;37.93;101128.84;5010769;28;46075;-74
2021/12/07 00:31:55;;;;;;;;;1.00;1.00;;;;;21.78;38.04;101112.63;5012314;28;45391;-74
2021/12/07 00:34:42;;;;;;;;;1.67;1.00;;;;;21.81;37.73;101114.13;5012252;28;45409;-74
2021/12/07 00:37:08;;;;;;;;;1.25;1.25;;;;;21.90;38.01;101113.13;5010749;28;45477;-74
2021/12/07 00:39:34;;;;;;;;;0.67;0.67;;;;;21.84;37.55;101101.38;5010501;28;47331;-74
2021/12/07 00:42:00;;;;;;;;;0.00;0.00;;;;;21.90;38.05;101114.94;5010954;28;45479;-73
2021/12/07 00:44:29;;;;;;;;;1.00;1.00;;;;;21.90;37.97;101112.31;5010601;28;45559;-74
2021/12/07 00:46:55;;;;;;;;;1.00;1.00;;;;;21.78;37.88;101098.59;5008822;28;45261;-74
2021/12/07 00:49:22;;;;;;;;;1.00;0.50;;;;;21.88;37.76;101115.13;4997949;28;45418;-73
2021/12/07 00:51:47;;;;;;;;;0.00;0.00;;;;;21.88;37.85;101103.72;4997977;28;45356;-74
2021/12/07 00:54:13;;;;;;;;;3.00;1.50;;;;;21.87;37.80;101104.66;4997784;28;45902;-74
2021/12/07 00:56:39;;;;;;;;;0.00;0.00;;;;;21.77;37.98;101104.88;4995732;28;45584;-73
2021/12/07 00:59:05;;;;;;;;;0.00;0.00;;;;;21.86;37.46;101127.66;4995129;28;46232;-73
2021/12/07 01:01:30;;;;;;;;;1.00;1.00;;;;;21.77;38.13;101105.72;4997855;28;45458;-73
2021/12/07 01:03:56;;;;;;;;;0.00;0.00;;;;;21.81;38.02;101116.75;4998305;28;45625;-74
2021/12/07 01:06:32;;;;;;;;;0.50;0.50;;;;;21.86;37.50;101119.72;4998133;28;45459;-74
2021/12/07 01:25:12;;;;;;;;;1.75;1.25;;;;;21.81;37.40;101117.59;5025602;28;45369;-73
2021/12/07 01:27:38;;;;;;;;;0.00;0.00;;;;;21.77;38.09;101108.34;5025338;27;45321;-73
2021/12/07 01:38:03;;;;;;;;;0.75;0.00;;;;;21.45;37.97;101068.59;5056030;28;45469;-74
2021/12/07 02:01:50;;;;;;;;;1.33;0.00;;;;;21.78;37.50;101130.38;5040283;28;45957;-74
2021/12/07 02:04:16;;;;;;;;;0.00;0.00;;;;;21.61;37.99;101104.78;5043783;28;45576;-74
2021/12/07 02:06:42;;;;;;;;;0.00;0.00;;;;;21.77;37.96;101132.19;5043615;28;45540;-74
2021/12/07 02:09:10;;;;;;;;;1.00;1.00;;;;;21.72;37.72;101131.88;5043791;28;45730;-74
2021/12/07 02:11:36;;;;;;;;;0.00;0.00;;;;;21.76;37.24;101138.47;5040455;28;47161;-74
2021/12/07 02:14:14;;;;;;;;;1.00;1.00;;;;;21.77;37.43;101139.31;5052847;28;45481;-73
2021/12/07 02:16:40;;;;;;;;;1.00;1.00;;;;;21.77;37.56;101142.78;5017072;27;45333;-74
2021/12/07 02:19:06;;;;;;;;;2.00;0.25;;;;;21.74;37.85;101132.53;5032694;28;46907;-74
2021/12/07 02:21:31;;;;;;;;;1.00;0.50;;;;;21.76;37.86;101137.66;5030867;27;45575;-74
2021/12/07 02:23:56;;;;;;;;;0.50;0.50;;;;;21.76;37.52;101127.88;5032481;28;45511;-74
2021/12/07 02:26:22;;;;;;;;;3.00;0.00;;;;;21.75;37.64;101131.53;5032292;28;45257;-74
2021/12/07 02:28:49;;;;;;;;;1.00;1.00;;;;;21.75;37.52;101126.25;5022166;27;45494;-74
2021/12/07 02:31:15;;;;;;;;;0.00;0.00;;;;;21.74;37.15;101135.19;5027746;28;46136;-74
2021/12/07 02:33:41;;;;;;;;;1.00;1.00;;;;;21.73;37.69;101125.56;5024381;28;45388;-74
2021/12/07 02:36:06;;;;;;;;;0.00;0.00;;;;;21.59;37.72;101113.88;5019287;28;45481;-73
2021/12/07 02:38:32;;;;;;;;;1.00;0.00;;;;;21.73;37.84;101139.66;5015994;28;45366;-74
2021/12/07 02:40:58;;;;;;;;;2.00;0.00;;;;;21.73;37.88;101137.00;5012400;27;48559;-74
2021/12/07 02:43:23;;;;;;;;;0.00;0.00;;;;;21.59;37.54;101127.97;5027553;28;45563;-74
2021/12/07 02:45:49;;;;;;;;;1.00;1.00;;;;;21.72;37.40;101129.25;5027343;28;45455;-74
2021/12/07 02:48:14;;;;;;;;;1.33;0.00;;;;;21.63;37.37;101123.13;5026818;27;45446;-74
2021/12/07 02:50:39;;;;;;;;;0.33;0.33;;;;;21.73;37.32;101133.53;5030736;28;46286;-74
2021/12/07 02:53:05;;;;;;;;;0.67;0.00;;;;;21.72;37.17;101143.31;5016615;27;49976;-74
2021/12/07 02:55:32;;;;;;;;;0.00;0.00;;;;;21.71;37.50;101144.28;5029044;28;45331;-73
2021/12/07 02:57:58;;;;;;;;;1.67;0.33;;;;;21.62;37.35;101126.78;5027631;27;45493;-74
2021/12/07 03:00:29;;;;;;;;;0.00;0.00;;;;;21.68;37.20;101139.34;5026121;27;46117;-74
2021/12/07 03:03:01;;;;;;;;;0.33;0.33;;;;;21.70;37.54;101136.53;5018566;28;45509;-74
2021/12/07 03:05:45;;;;;;;;;1.00;0.00;;;;;21.69;37.37;101138.34;5016221;28;45372;-73
2021/12/07 03:27:22;;;;;;;;;1.50;1.00;;;;;21.64;37.47;101098.31;5019011;28;45430;-74
2021/12/07 03:29:48;;;;;;;;;1.00;1.00;;;;;21.52;37.73;101088.09;5016956;28;45374;-74
2021/12/07 03:32:14;;;;;;;;;0.75;0.75;;;;;21.68;37.50;101106.72;5030259;28;46121;-74
2021/12/07 03:34:39;;;;;;;;;0.00;0.00;;;;;21.43;37.36;101073.22;5030457;27;45442;-74
2021/12/07 03:37:04;;;;;;;;;0.33;0.33;;;;;21.63;37.39;101109.88;5020686;28;45663;-74
2021/12/07 03:39:30;;;;;;;;;0.50;0.50;;;;;21.52;37.21;101092.53;5018196;28;45528;-73
2021/12/07 03:41:55;;;;;;;;;1.00;0.00;;;;;21.38;37.57;101080.84;5018609;28;46152;-73
2021/12/07 03:44:22;;;;;;;;;0.00;0.00;;;;;21.68;37.48;101123.44;5031572;28;45748;-74
2021/12/07 03:46:47;;;;;;;;;1.00;1.00;;;;;21.67;37.13;101121.81;5047496;28;45341;-74
2021/12/07 03:49:13;;;;;;;;;1.75;0.00;;;;;21.66;37.60;101104.25;5040824;28;45344;-73
2021/12/07 03:51:39;;;;;;;;;0.00;0.00;;;;;21.54;37.42;101080.00;5035449;27;46111;-74
2021/12/07 03:54:05;;;;;;;;;1.50;0.00;;;;;21.63;37.44;101092.19;5041484;28;45429;-74
2021/12/07 03:56:30;;;;;;;;;2.33;0.00;;;;;21.63;37.42;101078.13;5045171;28;45259;-74
2021/12/07 03:58:56;;;;;;;;;0.00;0.00;;;;;21.66;37.69;101080.44;5048342;28;45265;-74
2021/12/07 04:01:23;;;;;;;;;2.00;0.00;;;;;21.66;37.66;101069.84;5032287;28;45916;-73
2021/12/07 04:03:52;;;;;;;;;0.25;0.25;;;;;21.66;37.13;101071.66;5031186;28;45518;-74
2021/12/07 04:06:18;;;;;;;;;0.00;0.00;;;;;21.65;37.28;101060.22;5031230;28;45373;-74
2021/12/07 04:08:45;;;;;;;;;0.00;0.00;;;;;21.32;37.39;101016.19;5029773;28;45347;-73
2021/12/07 04:11:10;;;;;;;;;2.00;0.00;;;;;21.64;37.43;101077.13;5039448;28;45939;-75
2021/12/07 04:13:36;;;;;;;;;0.00;0.00;;;;;21.53;37.56;101057.16;5040943;28;45462;-73
2021/12/07 04:16:03;;;;;;;;;0.00;0.00;;;;;21.49;37.19;101056.66;5033779;28;45465;-74
2021/12/07 04:18:29;;;;;;;;;0.33;0.33;;;;;21.54;37.14;101068.56;5022862;28;45499;-74
2021/12/07 04:20:54;;;;;;;;;1.00;1.00;;;;;21.56;37.20;101069.22;5030869;28;46042;-74
2021/12/07 04:23:20;;;;;;;;;0.00;0.00;;;;;21.63;37.09;101086.06;5030850;28;45441;-74
2021/12/07 04:25:46;;;;;;;;;0.00;0.00;;;;;21.63;37.17;101078.94;5033243;27;45504;-73
2021/12/07 04:28:12;;;;;;;;;2.00;0.67;;;;;21.52;37.23;101064.25;5031050;28;45344;-74
2021/12/07 04:30:40;;;;;;;;;0.33;0.00;;;;;21.63;37.31;101084.25;5010357;27;47057;-73
2021/12/07 04:33:08;;;;;;;;;0.00;0.00;;;;;21.62;37.21;101087.06;5019217;28;45385;-74
2021/12/07 04:35:35;;;;;;;;;0.00;0.00;;;;;21.53;37.44;101059.78;5031228;28;45353;-73
2021/12/07 04:38:00;;;;;;;;;0.00;0.00;;;;;21.63;37.25;101078.13;5032133;28;45539;-73
2021/12/07 04:40:28;;;;;;;;;2.00;0.75;;;;;21.62;37.16;101077.28;5031471;28;45262;-74
2021/12/07 04:42:54;;;;;;;;;1.00;0.00;;;;;21.62;36.97;101073.84;5030915;28;45459;-73
2021/12/07 04:57:36;;;;;;;;;1.00;1.00;;;;;21.60;37.18;101079.28;4970696;28;45969;-72
2021/12/07 04:58:50;;;;;;;;;1.00;1.00;;;;;21.40;37.43;101044.44;4971102;28;45255;-73
2021/12/07 05:01:17;;;;;;;;;1.00;1.00;;;;;21.58;37.35;101076.00;4970898;28;46110;-74
2021/12/07 05:03:43;;;;;;;;;0.33;0.33;;;;;21.56;37.28;101055.97;4970948;28;45408;-74
2021/12/07 05:06:11;;;;;;;;;0.00;0.00;;;;;21.53;37.42;101059.78;4970762;28;45461;-74
2021/12/07 05:08:42;;;;;;;;;0.67;0.00;;;;;21.59;37.06;101067.06;4971145;28;45422;-74
2021/12/07 05:13:38;;;;;;;;;1.50;0.00;;;;;21.59;36.94;101059.13;4973885;28;45377;-73
2021/12/07 05:24:03;;;;;;;;;0.50;0.50;;;;;21.45;37.42;101039.47;5076962;27;50838;-74
2021/12/07 05:39:54;;;;;;;;;0.67;0.67;;;;;21.47;37.03;101036.63;5013320;28;45539;-73
2021/12/07 05:42:22;;;;;;;;;0.00;0.00;;;;;21.56;37.16;101054.16;5012961;28;46354;-74
2021/12/07 05:44:48;;;;;;;;;1.00;0.00;;;;;21.59;36.96;101061.75;5013157;28;45387;-73
2021/12/07 05:47:13;;;;;;;;;0.00;0.00;;;;;21.55;36.88;101055.16;5013340;28;45333;-74
2021/12/07 05:49:38;;;;;;;;;0.00;0.00;;;;;21.57;37.26;101058.44;5014844;28;45394;-73
2021/12/07 05:52:04;;;;;;;;;0.00;0.00;;;;;21.61;36.79;101058.94;5013009;28;45335;-74
2021/12/07 05:54:30;;;;;;;;;0.00;0.00;;;;;21.47;36.92;101042.75;5012738;28;45521;-73
2021/12/07 05:56:55;;;;;;;;;0.00;0.00;;;;;21.61;37.00;101062.41;5013207;28;45515;-74
2021/12/07 05:59:20;;;;;;;;;0.67;0.67;;;;;21.60;37.18;101044.88;5013277;28;45233;-73
2021/12/07 06:01:46;;;;;;;;;0.00;0.00;;;;;21.62;37.17;101048.16;5014761;28;46169;-74
2021/12/07 06:04:12;;;;;;;;;0.00;0.00;;;;;21.60;37.09;101028.97;5011225;28;45313;-74
2021/12/07 06:06:39;;;;;;;;;0.00;0.00;;;;;21.62;36.85;101028.81;5006038;28;45372;-73
2021/12/07 06:09:04;;;;;;;;;0.00;0.00;;;;;21.60;37.15;101028.16;5001403;28;45506;-74
2021/12/07 06:11:30;;;;;;;;;0.33;0.33;;;;;21.65;37.22;101025.00;4996036;28;45359;-74
2021/12/07 06:13:55;;;;;;;;;0.00;0.00;;;;;21.65;37.26;101028.44;4998896;28;45317;-74
2021/12/07 06:16:20;;;;;;;;;0.33;0.33;;;;;21.65;36.85;101019.72;5000287;28;45558;-73
2021/12/07 06:18:46;;;;;;;;;2.00;0.00;;;;;21.66;37.11;101019.53;5085035;27;45636;-74
2021/12/07 06:21:13;;;;;;;;;1.00;0.00;;;;;21.38;36.92;100961.75;5014316;27;45485;-74
2021/12/07 06:23:38;;;;;;;;;2.75;0.00;;;;;21.67;36.91;101009.75;5017023;28;45558;-73
2021/12/07 06:26:04;;;;;;;;;0.50;0.00;;;;;21.55;37.27;100990.78;5017428;27;45488;-74
2021/12/07 06:28:30;;;;;;;;;0.00;0.00;;;;;21.69;36.96;100994.53;5009102;27;45581;-73
2021/12/07 06:30:56;;;;;;;;;0.00;0.00;;;;;21.55;36.79;100964.31;5024365;28;45301;-74
2021/12/07 06:33:24;;;;;;;;;0.00;0.00;;;;;21.70;36.57;100996.19;5027311;28;45533;-73
2021/12/07 06:35:56;;;;;;;;;1.75;0.00;;;;;21.39;37.37;100934.31;5029233;28;45489;-73
2021/12/07 06:38:22;;;;;;;;;1.00;1.00;;;;;21.62;37.25;100960.78;5032008;28;45535;-74
2021/12/07 06:40:48;;;;;;;;;0.00;0.00;;;;;21.65;37.06;100950.88;5029594;28;47258;-74
2021/12/07 06:43:13;;;;;;;;;0.25;0.25;;;;;21.70;37.05;100949.31;5032120;28;45501;-78
2021/12/07 06:45:39;;;;;;;;;2.00;0.00;;;;;21.44;36.42;100913.44;5031193;28;45559;-75
2021/12/07 06:48:05;;;;;;;;;0.67;0.67;;;;;21.72;37.03;100944.69;5030475;28;45490;-74
2021/12/07 06:50:31;;;;;;;;;0.00;0.00;;;;;21.72;36.91;100934.09;5032293;28;46355;-75
2021/12/07 06:52:57;;;;;;;;;0.00;0.00;;;;;21.65;36.67;100919.88;5033995;28;45464;-77
2021/12/07 06:55:22;;;;;;;;;0.75;0.75;;;;;21.74;36.83;100918.84;5027435;28;45507;-81
2021/12/07 06:57:48;;;;;;;;;0.00;0.00;;;;;21.76;37.02;100926.59;5026340;28;45380;-75
2021/12/07 07:00:15;;;;;;;;;0.00;0.00;;;;;21.74;36.77;100925.97;5031784;28;47128;-73
2021/12/07 07:02:40;;;;;;;;;2.00;1.00;;;;;21.69;36.83;100920.38;5026642;28;45539;-73
2021/12/07 07:05:06;;;;;;;;;1.00;1.00;;;;;21.65;36.66;100900.56;5032649;28;45433;-74
2021/12/07 07:07:33;;;;;;;;;1.00;1.00;;;;;21.79;37.29;100920.97;5033065;27;45607;-74
2021/12/07 07:09:59;;;;;;;;;1.33;1.00;;;;;21.80;37.29;100916.50;5031738;28;46697;-73
2021/12/07 07:12:24;;;;;;;;;2.00;1.00;;;;;21.80;37.04;100913.84;5025932;27;45549;-73
2021/12/07 07:14:50;;;;;;;;;0.67;0.67;;;;;21.81;37.38;100926.91;5068816;27;45357;-73
2021/12/07 07:17:15;;;;;;;;;0.33;0.00;;;;;21.82;37.17;100928.56;5041052;27;45497;-73
2021/12/07 07:19:40;;;;;;;;;0.00;0.00;;;;;21.73;37.29;100903.13;5050233;27;46093;-73
2021/12/07 07:22:06;;;;;;;;;2.00;0.67;;;;;21.83;37.44;100919.59;5034525;27;46346;-76
2021/12/07 07:24:32;;;;;;;;;2.00;0.00;;;;;21.84;37.59;100918.59;5018266;28;45446;-74
2021/12/07 07:26:59;;;;;;;;;0.00;0.00;;;;;21.83;37.43;100897.59;5018860;28;45387;-74
2021/12/07 07:29:24;;;;;;;;;2.00;1.00;;;;;21.84;37.40;100900.06;5014278;27;46183;-72
2021/12/07 07:31:50;;;;;;;;;1.00;1.00;;;;;21.84;37.04;100886.00;5017604;28;45383;-72
2021/12/07 07:34:16;;;;;;;;;3.25;1.25;;;;;21.85;37.48;100882.34;5018164;28;45518;-72
2021/12/07 07:36:41;;;;;;;;;1.00;1.00;;;;;21.76;37.28;100888.69;5018814;28;45493;-72
2021/12/07 07:39:07;;;;;;;;;1.00;1.00;;;;;21.85;37.24;100901.72;5018728;28;46121;-72
2021/12/07 07:41:32;;;;;;;;;1.00;0.00;;;;;21.84;37.36;100891.28;5015185;28;45390;-72
2021/12/07 07:43:58;;;;;;;;;1.00;0.67;;;;;21.74;37.45;100870.34;5017097;28;45301;-72
2021/12/07 07:46:23;;;;;;;;;2.00;1.00;;;;;21.81;37.64;100878.41;5018610;28;45439;-72
2021/12/07 07:48:49;;;;;;;;;0.00;0.00;;;;;21.81;37.58;100873.09;5018615;28;45885;-71
2021/12/07 07:51:14;;;;;;;;;1.67;1.67;;;;;21.80;37.52;100876.78;5018653;27;45466;-72
2021/12/07 07:53:40;;;;;;;;;1.00;1.00;;;;;21.82;36.90;100878.25;5029801;28;45338;-71
2021/12/07 07:56:06;;;;;;;;;3.00;1.00;;;;;21.81;37.58;100865.16;5021188;27;45430;-72
2021/12/07 07:58:32;;;;;;;;;1.75;1.75;;;;;21.79;37.23;100849.47;5027244;28;46242;-72
2021/12/07 08:00:57;;;;;;;;;0.00;0.00;;;;;21.80;37.25;100850.28;5026211;28;45518;-72
2021/12/07 08:03:23;;;;;;;;;0.00;0.00;;;;;21.72;37.03;100845.88;5026442;28;45488;-72
2021/12/07 08:05:48;;;;;;;;;1.33;0.00;;;;;21.80;37.37;100835.22;4999591;28;45559;-72
2021/12/07 08:08:14;;;;;;;;;1.00;1.00;;;;;21.81;37.13;100820.13;5029598;28;45996;-72
2021/12/07 08:10:39;;;;;;;;;0.00;0.00;;;;;21.71;37.61;100818.56;5028938;28;45457;-72
2021/12/07 08:13:06;;;;;;;;;3.67;1.00;;;;;21.79;37.25;100830.09;5020881;27;45441;-72
2021/12/07 08:15:36;;;;;;;;;0.25;0.25;;;;;21.78;37.58;100816.03;5017865;28;45419;-72
2021/12/07 08:18:02;;;;;;;;;1.00;0.00;;;;;21.78;37.43;100815.22;5018021;28;47172;-72
2021/12/07 08:20:28;;;;;;;;;0.67;0.67;;;;;21.77;37.54;100810.91;5013831;27;45557;-72
2021/12/07 08:22:53;;;;;;;;;0.00;0.00;;;;;21.77;36.92;100811.75;5017607;28;45299;-72
2021/12/07 08:25:19;;;;;;;;;1.00;1.00;;;;;21.68;37.42;100810.16;5018370;28;45624;-72
2021/12/07 08:27:44;;;;;;;;;1.00;1.00;;;;;21.73;37.10;100819.22;5021394;28;45385;-72
2021/12/07 08:30:12;;;;;;;;;0.75;0.75;;;;;21.77;37.48;100819.69;5025969;28;45443;-72
2021/12/07 08:32:39;;;;;;;;;0.00;0.00;;;;;21.77;37.38;100810.91;5031020;28;45363;-72
2021/12/07 08:35:05;;;;;;;;;0.00;0.00;;;;;21.77;37.08;100802.97;5031732;28;45307;-72
2021/12/07 08:37:30;;;;;;;;;1.00;1.00;;;;;21.77;37.45;100779.97;5031862;28;45425;-72
2021/12/07 08:39:55;;;;;;;;;2.00;2.00;;;;;21.76;37.41;100758.94;5030451;28;45504;-72
2021/12/07 08:42:21;;;;;;;;;0.00;0.00;;;;;21.70;37.12;100728.72;5029391;28;45552;-72
2021/12/07 08:44:47;;;;;;;;;0.00;0.00;;;;;21.75;37.33;100726.38;5030333;28;45325;-72
2021/12/07 08:47:13;;;;;;;;;1.00;1.00;;;;;21.64;36.92;100698.50;5030623;28;47114;-72
2021/12/07 08:49:38;;;;;;;;;0.67;0.00;;;;;21.63;36.85;100697.66;5032677;28;45378;-72
2021/12/07 08:52:04;;;;;;;;;1.00;1.00;;;;;21.46;37.34;100678.50;5029514;28;45384;-73
2021/12/07 08:59:52;;;;;;;;;0.00;0.00;;;;;21.71;37.29;100731.19;5027032;28;45480;-73
2021/12/07 09:02:24;;;;;;;;;1.00;0.00;;;;;21.73;36.96;100729.19;5029616;28;45512;-73
2021/12/07 09:04:50;;;;;;;;;0.00;0.00;;;;;21.73;37.21;100728.34;5028238;27;45225;-72
2021/12/07 09:07:17;;;;;;;;;1.50;1.50;;;;;21.73;37.17;100725.69;5018690;28;46087;-73
2021/12/07 09:09:43;;;;;;;;;1.50;1.50;;;;;21.67;37.42;100719.31;5017430;28;45488;-71
2021/12/07 09:12:10;;;;;;;;;1.00;1.00;;;;;21.71;37.03;100714.47;5015755;28;45363;-71
2021/12/07 09:14:36;;;;;;;;;1.00;1.00;;;;;21.62;37.00;100698.66;5028911;28;45493;-73
2021/12/07 09:17:04;;;;;;;;;0.75;0.75;;;;;21.73;37.13;100709.81;5028202;28;45485;-72
2021/12/07 09:19:30;;;;;;;;;1.25;0.00;;;;;21.66;37.10;100693.00;5027601;28;45360;-72
2021/12/07 09:21:56;;;;;;;;;1.00;1.00;;;;;21.63;37.00;100673.84;5020991;28;45229;-72
2021/12/07 09:24:23;;;;;;;;;1.00;1.00;;;;;21.71;37.22;100665.00;5017461;28;45459;-73
2021/12/07 09:26:49;;;;;;;;;0.00;0.00;;;;;21.70;37.19;100655.38;5015512;28;45426;-73
2021/12/07 09:29:14;;;;;;;;;1.00;0.00;;;;;21.70;37.06;100651.94;5014788;27;45423;-73
2021/12/07 09:31:40;;;;;;;;;0.75;0.75;;;;;21.71;37.09;100664.16;5016663;28;45410;-72
2021/12/07 09:34:07;;;;;;;;;1.00;1.00;;;;;21.56;37.25;100633.22;5026214;28;45540;-72
2021/12/07 09:36:33;;;;;;;;;1.00;1.00;;;;;21.70;37.22;100665.19;5024904;28;46233;-72
2021/12/07 09:38:59;;;;;;;;;1.00;1.00;;;;;21.66;37.16;100661.25;5025347;27;45557;-73
2021/12/07 09:41:24;;;;;;;;;1.75;1.00;;;;;21.38;37.11;100610.59;5012231;28;45299;-72
2021/12/07 09:43:50;;;;;;;;;0.75;0.00;;;;;21.63;37.09;100644.72;5016511;28;45283;-73
2021/12/07 09:46:16;;;;;;;;;0.00;0.00;;;;;21.58;36.85;100625.09;5016930;28;46232;-72
2021/12/07 09:48:44;;;;;;;;;0.00;0.00;;;;;21.69;37.04;100645.00;5001910;28;45532;-73
2021/12/07 09:51:11;;;;;;;;;0.00;0.00;;;;;21.67;37.29;100637.25;5017237;28;45358;-72
2021/12/07 09:53:37;;;;;;;;;1.00;1.00;;;;;21.67;37.23;100629.31;5029053;28;45342;-72
2021/12/07 09:56:06;;;;;;;;;1.00;1.00;;;;;21.67;37.10;100623.19;5014980;28;45575;-72
2021/12/07 09:58:32;;;;;;;;;1.50;1.00;;;;;21.63;36.62;100604.19;5030324;28;45461;-73
2021/12/07 10:00:57;;;;;;;;;1.00;1.00;;;;;21.56;36.71;100590.03;5023240;28;45637;-72
2021/12/07 10:03:24;;;;;;;;;3.00;1.00;;;;;21.66;37.06;100598.53;5019918;28;45473;-73
2021/12/07 10:05:51;;;;;;;;;1.50;0.25;;;;;21.56;36.96;100582.91;5018610;28;46056;-72
2021/12/07 10:08:17;;;;;;;;;0.25;0.25;;;;;21.66;36.80;100582.63;5016964;27;45394;-73
2021/12/07 10:10:53;;;;;;;;;2.00;0.00;;;;;21.66;36.87;100571.22;5034273;28;45449;-73
2021/12/07 10:13:21;;;;;;;;;1.00;1.00;;;;;21.56;37.02;100542.38;5020668;28;45711;-73
2021/12/07 10:15:47;;;;;;;;;0.00;0.00;;;;;21.60;36.81;100546.28;5024192;27;47028;-72
2021/12/07 10:18:19;;;;;;;;;1.00;1.00;;;;;21.65;36.68;100545.75;5012947;27;45513;-72
2021/12/07 10:20:49;;;;;;;;;0.00;0.00;;;;;21.64;36.53;100526.41;5017656;27;45472;-72
2021/12/07 10:23:18;;;;;;;;;1.00;0.67;;;;;21.65;36.99;100511.34;5016768;28;45599;-72
2021/12/07 10:25:52;;;;;;;;;1.00;1.00;;;;;21.66;36.81;100494.44;5018529;28;47214;-73
2021/12/07 10:28:24;;;;;;;;;1.00;1.00;;;;;21.66;36.90;100487.31;5019459;28;45556;-72
2021/12/07 10:30:50;;;;;;;;;1.00;1.00;;;;;21.65;36.63;100463.69;5015852;27;45334;-73
2021/12/07 10:33:28;;;;;;;;;1.00;1.00;;;;;21.64;36.88;100446.97;5019517;28;45341;-72
2021/12/07 10:36:08;;;;;;;;;0.00;0.00;;;;;21.61;36.82;100427.00;5018740;28;45405;-72
2021/12/07 10:38:34;;;;;;;;;2.25;1.75;;;;;21.60;36.68;100427.16;5016128;28;48440;-72
2021/12/07 10:41:01;;;;;;;;;2.25;2.25;;;;;21.62;36.83;100433.91;5017850;28;45422;-73
2021/12/07 10:43:49;;;;;;;;;1.00;1.00;;;;;21.62;36.84;100409.28;5019799;28;45381;-73
2021/12/07 10:46:37;;;;;;;;;1.25;1.25;;;;;21.63;36.73;100387.91;5019317;28;45401;-72
2021/12/07 10:49:17;;;;;;;;;1.50;0.75;;;;;21.63;36.86;100387.91;5019607;28;45442;-72
2021/12/07 10:51:57;;;;;;;;;1.75;1.75;;;;;21.63;37.03;100377.31;5023277;28;45522;-72
2021/12/07 10:54:23;;;;;;;;;1.00;1.00;;;;;21.63;36.85;100364.09;5027107;27;46055;-73
2021/12/07 10:56:50;;;;;;;;;0.25;0.25;;;;;21.62;36.60;100327.22;5028908;27;45452;-73
2021/12/07 10:59:16;;;;;;;;;1.00;1.00;;;;;21.62;36.69;100312.13;5030871;28;45475;-72
2021/12/07 11:01:46;;;;;;;;;2.00;0.75;;;;;21.63;36.66;100291.78;5029779;28;45533;-72
2021/12/07 11:04:26;;;;;;;;;1.25;1.00;;;;;21.63;37.01;100300.53;5026780;28;45595;-72
2021/12/07 11:07:08;;;;;;;;;0.00;0.00;;;;;21.63;36.99;100302.38;5027134;28;45457;-72
2021/12/07 11:09:59;;;;;;;;;1.00;1.00;;;;;21.63;36.59;100302.38;5026433;27;45471;-72
2021/12/07 11:12:29;;;;;;;;;1.00;1.00;;;;;21.62;36.66;100287.50;5027422;28;45306;-72
2021/12/07 11:14:59;;;;;;;;;0.00;0.00;;;;;21.62;36.92;100269.78;5028097;28;45557;-72
2021/12/07 11:17:31;;;;;;;;;1.00;1.00;;;;;21.60;36.61;100255.91;5030715;28;47199;-72
2021/12/07 11:19:58;;;;;;;;;1.25;0.00;;;;;21.62;36.68;100243.31;5033616;27;45425;-72
2021/12/07 11:22:27;;;;;;;;;1.25;1.25;;;;;21.62;36.87;100237.22;5027313;28;45521;-73
2021/12/07 11:24:54;;;;;;;;;1.00;1.00;;;;;21.62;36.69;100231.91;5027136;28;45433;-72
2021/12/07 11:30:14;;;;;;;;;0.00;0.00;;;;;21.58;36.71;100214.75;5019721;28;45536;-72
2021/12/07 11:32:47;;;;;;;;;0.75;0.75;;;;;21.62;37.18;100192.22;5012615;28;45364;-72
2021/12/07 11:35:26;;;;;;;;;1.00;1.00;;;;;21.61;36.89;100172.84;5031537;28;45454;-72
2021/12/07 11:37:54;;;;;;;;;3.00;1.00;;;;;21.60;36.53;100157.16;5033273;27;47352;-72
2021/12/07 11:40:27;;;;;;;;;2.00;0.00;;;;;21.60;36.40;100162.44;5031380;28;45321;-72
2021/12/07 11:42:54;;;;;;;;;1.00;1.00;;;;;21.59;36.55;100163.47;5031545;28;45471;-72
2021/12/07 11:45:31;;;;;;;;;1.00;1.00;;;;;21.59;36.86;100140.47;5031446;27;45592;-73
2021/12/07 11:48:00;;;;;;;;;1.00;0.00;;;;;21.59;36.45;100131.72;5031420;27;47297;-72
2021/12/07 11:50:36;;;;;;;;;2.25;1.00;;;;;21.58;36.69;100133.53;5014321;27;45355;-73
2021/12/07 11:53:09;;;;;;;;;2.00;1.00;;;;;21.58;36.69;100140.66;5029304;28;45300;-72
2021/12/07 11:55:37;;;;;;;;;3.00;1.00;;;;;21.59;36.44;100131.72;5032967;28;45320;-72
2021/12/07 11:58:04;;;;;;;;;2.00;1.00;;;;;21.52;36.27;100123.72;5011904;27;46067;-72
2021/12/07 12:00:36;;;;;;;;;2.00;0.50;;;;;21.59;36.40;100123.75;5025558;27;45353;-72
2021/12/07 12:03:09;;;;;;;;;1.00;1.00;;;;;21.56;36.36;100103.78;5027668;27;45402;-73
2021/12/07 12:05:35;;;;;;;;;2.25;1.50;;;;;21.58;36.64;100093.81;5030114;28;45551;-72
2021/12/07 12:08:04;;;;;;;;;0.00;0.00;;;;;21.58;36.66;100093.00;5016422;27;45435;-72
2021/12/07 12:10:30;;;;;;;;;1.25;1.25;;;;;21.51;36.83;100077.91;5017566;28;45350;-72
2021/12/07 12:13:16;;;;;;;;;1.33;1.00;;;;;21.58;36.72;100091.19;5018457;28;45716;-72
2021/12/07 12:16:00;;;;;;;;;0.50;0.50;;;;;21.59;36.61;100073.47;5023414;28;45509;-72
2021/12/07 12:18:59;;;;;;;;;1.00;1.00;;;;;21.59;36.42;100081.41;5026183;28;46192;-72
2021/12/07 12:21:50;;;;;;;;;1.00;1.00;;;;;21.58;36.45;100075.28;5025844;27;45375;-72
2021/12/07 12:24:38;;;;;;;;;0.00;0.00;;;;;21.59;36.46;100063.72;5026290;28;45370;-72
2021/12/07 12:27:09;;;;;;;;;1.00;1.00;;;;;21.59;36.38;100066.34;5026222;28;45570;-72
2021/12/07 12:29:38;;;;;;;;;1.00;1.00;;;;;21.58;36.70;100040.88;5029708;28;46902;-72
2021/12/07 12:32:04;;;;;;;;;1.00;1.00;;;;;21.59;36.47;100025.81;5028545;28;45620;-72
2021/12/07 12:34:47;;;;;;;;;1.00;1.00;;;;;21.51;36.20;100021.50;5032536;27;45423;-72
2021/12/07 12:37:15;;;;;;;;;1.67;1.00;;;;;21.58;37.07;100017.06;5019401;27;45481;-72
2021/12/07 12:39:48;;;;;;;;;1.00;1.00;;;;;21.59;36.53;100028.47;5017682;28;47243;-72
2021/12/07 12:42:28;;;;;;;;;0.33;0.33;;;;;21.59;36.42;100025.81;5017841;27;45437;-73
2021/12/07 12:45:10;;;;;;;;;0.00;0.00;;;;;21.59;36.18;100016.06;5017218;28;45561;-73
2021/12/07 12:47:38;;;;;;;;;1.00;1.00;;;;;21.58;36.64;100003.81;5014957;28;45424;-73
2021/12/07 12:50:31;;;;;;;;;0.50;0.50;;;;;21.57;36.46;99983.66;5028217;28;46311;-72
2021/12/07 12:53:03;;;;;;;;;1.00;0.00;;;;;21.53;36.66;99985.06;5028554;28;45447;-71
2021/12/07 12:55:39;;;;;;;;;2.00;2.00;;;;;21.57;36.65;99990.81;5005548;28;45628;-72
2021/12/07 12:58:36;;;;;;;;;0.50;0.50;;;;;21.51;36.98;99969.41;5023362;28;45423;-72
2021/12/07 13:01:12;;;;;;;;;0.00;0.00;;;;;21.49;36.71;99963.47;5025870;28;46199;-72
2021/12/07 13:03:41;;;;;;;;;1.00;1.00;;;;;21.51;36.30;99953.53;5025326;28;45499;-71
2021/12/07 13:06:07;;;;;;;;;1.50;0.75;;;;;21.46;36.42;99949.84;5026039;28;45331;-72
2021/12/07 13:08:54;;;;;;;;;0.00;0.00;;;;;21.56;36.23;99967.97;5030516;27;45636;-72
2021/12/07 13:11:41;;;;;;;;;1.00;0.50;;;;;21.56;36.35;99975.91;5030127;28;46344;-72
2021/12/07 13:14:12;;;;;;;;;3.00;1.00;;;;;21.56;36.48;99971.44;5028362;28;45438;-73
2021/12/07 13:16:46;;;;;;;;;2.00;1.00;;;;;21.55;36.78;99950.47;5032241;27;45330;-73
2021/12/07 13:19:12;;;;;;;;;1.00;1.00;;;;;21.55;36.50;99931.94;5029825;28;45481;-72
2021/12/07 13:21:43;;;;;;;;;0.50;0.50;;;;;21.52;36.35;99912.78;5029412;27;46103;-73